createdAt,value
2022-11-03T00:00:04.918Z,100448.03
2022-11-03T00:02:09.613Z,100441.19
2022-11-03T00:04:13.907Z,100443.81
2022-11-03T00:06:15.851Z,100452.38
2022-11-03T00:08:17.794Z,100450.69
2022-11-03T00:10:19.729Z,100452.44
2022-11-03T00:12:21.677Z,100461.06
2022-11-03T00:14:23.658Z,100451.63
2022-11-03T00:16:25.840Z,100464.56
2022-11-03T00:18:27.848Z,100461.97
2022-11-03T00:20:29.820Z,100463.69
2022-11-03T00:22:33.444Z,100455.09
2022-11-03T00:24:35.349Z,100446.50
2022-11-03T00:26:38.475Z,100443.94
2022-11-03T00:28:43.062Z,100446.53
2022-11-03T00:30:45.105Z,100445.69
2022-11-03T00:32:47.117Z,100448.31
2022-11-03T00:34:49.398Z,100458.66
2022-11-03T00:36:51.360Z,100453.50
2022-11-03T00:38:53.842Z,100463.84
2022-11-03T00:40:57.297Z,100460.44
2022-11-03T00:42:59.519Z,100467.28
2022-11-03T00:45:01.427Z,100456.09
2022-11-03T00:47:03.368Z,100453.50
2022-11-03T00:49:05.819Z,100466.47
2022-11-03T00:51:11.345Z,100459.53
2022-11-03T00:53:13.274Z,100467.28
2022-11-03T00:55:15.578Z,100450.06
2022-11-03T00:57:17.506Z,100455.13
2022-11-03T00:59:19.423Z,100431.97
2022-11-03T01:01:25.339Z,100439.72
2022-11-03T01:03:27.540Z,100445.69
2022-11-03T01:05:32.686Z,100451.69
2022-11-03T01:07:34.629Z,100442.16
2022-11-03T01:09:38.537Z,100424.88
2022-11-03T01:11:43.596Z,100420.63
2022-11-03T01:13:46.983Z,100409.44
2022-11-03T01:15:48.999Z,100427.53
2022-11-03T01:17:51.074Z,100426.72
2022-11-03T01:19:53.378Z,100418.91
2022-11-03T01:21:55.331Z,100412.06
2022-11-03T01:23:57.384Z,100406.00
2022-11-03T01:26:05.109Z,100406.03
2022-11-03T01:28:07.036Z,100403.41
2022-11-03T01:30:09.636Z,100390.53
2022-11-03T01:32:12.801Z,100411.16
2022-11-03T01:34:17.963Z,100419.72
2022-11-03T01:36:20.836Z,100420.63
2022-11-03T01:38:22.792Z,100412.88
2022-11-03T01:40:24.995Z,100405.06
2022-11-03T01:42:26.986Z,100411.97
2022-11-03T01:44:35.070Z,100411.97
2022-11-03T01:46:43.161Z,100407.66
2022-11-03T01:48:50.116Z,100408.47
2022-11-03T01:50:52.681Z,100394.75
2022-11-03T01:52:58.411Z,100393.88
2022-11-03T01:55:04.864Z,100385.28
2022-11-03T01:57:14.049Z,100374.09
2022-11-03T01:59:18.548Z,100382.63
2022-11-03T02:01:21.209Z,100363.69
2022-11-03T02:03:24.394Z,100353.41
2022-11-03T02:05:27.474Z,100351.69
2022-11-03T02:07:40.384Z,100332.75
2022-11-03T02:09:42.285Z,100331.03
2022-11-03T02:11:53.360Z,100334.47
2022-11-03T02:13:55.124Z,100325.03
2022-11-03T02:15:59.573Z,100322.41
2022-11-03T02:18:03.139Z,100312.91
2022-11-03T02:20:11.417Z,100311.22
2022-11-03T02:22:27.163Z,100310.41
2022-11-03T02:24:39.415Z,100303.47
2022-11-03T02:26:44.008Z,100290.59
2022-11-03T02:28:45.916Z,100282.84
2022-11-03T02:31:07.457Z,100282.84
2022-11-03T02:33:24.849Z,100275.13
2022-11-03T02:35:31.623Z,100275.09
2022-11-03T02:37:37.406Z,100270.81
2022-11-03T02:39:45.469Z,100266.53
2022-11-03T02:41:49.345Z,100262.22
2022-11-03T02:43:52.754Z,100264.78
2022-11-03T02:45:55.894Z,100257.91
2022-11-03T02:48:01.970Z,100250.16
2022-11-03T02:50:08.620Z,100246.72
2022-11-03T02:52:33.469Z,100239.81
2022-11-03T02:54:40.576Z,100241.53
2022-11-03T02:56:50.733Z,100235.50
2022-11-03T02:59:03.446Z,100232.06
2022-11-03T03:01:15.371Z,100222.66
2022-11-03T03:03:25.053Z,100229.50
2022-11-03T03:05:32.129Z,100245.03
2022-11-03T03:07:40.785Z,100238.13
2022-11-03T03:09:51.739Z,100218.28
2022-11-03T03:11:58.719Z,100188.19
2022-11-03T03:14:00.530Z,100187.28
2022-11-03T03:16:17.447Z,100175.25
2022-11-03T03:18:24.634Z,100166.59
2022-11-03T03:20:33.645Z,100166.59
2022-11-03T03:22:43.239Z,100164.88
2022-11-03T03:24:51.510Z,100151.97
2022-11-03T03:26:59.141Z,100146.81
2022-11-03T03:29:08.028Z,100137.31
2022-11-03T03:31:14.572Z,100133.03
2022-11-03T03:33:18.062Z,100125.28
2022-11-03T03:35:25.898Z,100115.81
2022-11-03T03:37:29.795Z,100120.13
2022-11-03T03:39:36.378Z,100108.06
2022-11-03T03:41:39.573Z,100102.06
2022-11-03T03:43:42.637Z,100105.50
2022-11-03T03:45:46.208Z,100100.31
2022-11-03T03:47:48.324Z,100092.56
2022-11-03T03:49:50.245Z,100091.72
2022-11-03T03:51:52.110Z,100079.63
2022-11-03T03:53:55.482Z,100071.91
2022-11-03T03:55:58.934Z,100065.03
2022-11-03T03:58:00.798Z,100064.13
2022-11-03T04:00:02.545Z,100055.53
2022-11-03T04:02:04.479Z,100062.44
2022-11-03T04:04:06.489Z,100057.25
2022-11-03T04:06:09.455Z,100049.50
2022-11-03T04:08:12.959Z,100052.06
2022-11-03T04:10:17.039Z,100044.34
2022-11-03T04:12:28.737Z,100028.00
2022-11-03T04:14:40.849Z,100021.94
2022-11-03T04:16:52.680Z,100022.81
2022-11-03T04:19:04.609Z,100034.00
2022-11-03T04:21:19.663Z,100055.53
2022-11-03T04:23:21.489Z,100043.47
2022-11-03T04:25:23.379Z,100045.19
2022-11-03T04:27:34.683Z,100027.06
2022-11-03T04:29:36.460Z,100039.13
2022-11-03T04:31:39.141Z,100039.13
2022-11-03T04:33:41.845Z,100021.88
2022-11-03T04:35:44.869Z,100009.78
2022-11-03T04:37:51.783Z,99996.91
2022-11-03T04:39:59.511Z,100008.97
2022-11-03T04:42:01.352Z,100012.34
2022-11-03T04:44:10.937Z,100013.22
2022-11-03T04:46:16.044Z,100002.91
2022-11-03T04:48:22.554Z,100009.78
2022-11-03T04:50:24.652Z,100003.72
2022-11-03T04:52:26.429Z,100001.97
2022-11-03T04:54:28.334Z,99994.25
2022-11-03T04:56:30.564Z,99993.34
2022-11-03T04:58:35.739Z,99984.72
2022-11-03T05:00:37.494Z,99988.19
2022-11-03T05:02:39.349Z,99978.69
2022-11-03T05:04:42.244Z,99974.38
2022-11-03T05:06:51.798Z,99966.66
2022-11-03T05:08:56.807Z,99951.13
2022-11-03T05:11:00.449Z,99952.84
2022-11-03T05:13:02.326Z,99968.34
2022-11-03T05:15:21.765Z,99948.53
2022-11-03T05:17:26.910Z,99954.59
2022-11-03T05:19:34.189Z,99942.53
2022-11-03T05:21:36.004Z,99939.06
2022-11-03T05:23:41.091Z,99957.19
2022-11-03T05:25:45.794Z,99952.00
2022-11-03T05:27:47.664Z,99950.28
2022-11-03T05:29:53.963Z,99948.53
2022-11-03T05:31:58.554Z,99938.19
2022-11-03T05:34:02.601Z,99931.38
2022-11-03T05:36:13.975Z,99924.44
2022-11-03T05:38:20.039Z,99928.78
2022-11-03T05:40:25.789Z,99930.50
2022-11-03T05:42:34.243Z,99932.31
2022-11-03T05:44:37.963Z,99921.06
2022-11-03T05:46:39.830Z,99905.56
2022-11-03T05:48:44.952Z,99915.06
2022-11-03T05:50:46.831Z,99923.69
2022-11-03T05:52:51.637Z,99913.38
2022-11-03T05:54:58.735Z,99903.09
2022-11-03T05:57:01.641Z,99901.38
2022-11-03T05:59:05.395Z,99903.13
2022-11-03T06:01:16.950Z,99904.81
2022-11-03T06:03:25.609Z,99887.63
2022-11-03T06:05:28.059Z,99887.59
2022-11-03T06:07:31.728Z,99889.38
2022-11-03T06:09:34.106Z,99888.50
2022-11-03T06:11:37.488Z,99891.09
2022-11-03T06:13:39.989Z,99895.44
2022-11-03T06:15:46.091Z,99895.41
2022-11-03T06:17:47.904Z,99908.34
2022-11-03T06:19:52.618Z,99899.75
2022-11-03T06:21:58.391Z,99916.94
2022-11-03T06:24:00.315Z,99883.41
2022-11-03T06:26:04.040Z,99900.63
2022-11-03T06:28:11.875Z,99898.03
2022-11-03T06:30:31.355Z,99901.47
2022-11-03T06:32:34.164Z,99911.81
2022-11-03T06:34:39.335Z,99911.81
2022-11-03T06:36:41.219Z,99906.66
2022-11-03T06:38:46.971Z,99916.13
2022-11-03T06:40:52.823Z,99913.53
2022-11-03T06:42:55.919Z,99892.88
2022-11-03T06:44:57.702Z,99898.94
2022-11-03T06:47:07.087Z,99897.19
2022-11-03T06:49:28.409Z,99905.78
2022-11-03T06:51:31.005Z,99906.66
2022-11-03T06:53:33.966Z,99912.69
2022-11-03T06:55:38.776Z,99912.69
2022-11-03T06:57:43.536Z,99906.66
2022-11-03T06:59:46.028Z,99899.78
2022-11-03T07:01:55.401Z,99902.34
2022-11-03T07:04:01.486Z,99898.91
2022-11-03T07:06:18.986Z,99898.06
2022-11-03T07:08:25.001Z,99884.31
2022-11-03T07:10:29.919Z,99875.69
2022-11-03T07:12:31.953Z,99873.97
2022-11-03T07:14:34.314Z,99873.09
2022-11-03T07:16:41.975Z,99886.88
2022-11-03T07:18:45.435Z,99897.19
2022-11-03T07:20:49.013Z,99913.53
2022-11-03T07:22:53.055Z,99916.13
2022-11-03T07:25:00.234Z,99919.56
2022-11-03T07:27:20.738Z,99915.25
2022-11-03T07:29:26.497Z,99905.81
2022-11-03T07:31:28.745Z,99902.38
2022-11-03T07:33:32.274Z,99894.59
2022-11-03T07:36:08.541Z,99892.91
2022-11-03T07:38:04.233Z,99905.78
2022-11-03T07:40:13.977Z,99908.38
2022-11-03T07:42:20.251Z,99914.41
2022-11-03T07:44:22.434Z,99923.88
2022-11-03T07:46:25.705Z,99923.00
2022-11-03T07:48:43.745Z,99927.31
2022-11-03T07:50:46.505Z,99921.31
2022-11-03T07:52:48.604Z,99917.84
2022-11-03T07:54:53.668Z,99919.56
2022-11-03T07:56:58.656Z,99919.56
2022-11-03T07:59:05.477Z,99909.25
2022-11-03T08:01:23.096Z,99905.81
2022-11-03T08:03:36.196Z,99898.06
2022-11-03T08:05:38.445Z,99900.63
2022-11-03T08:07:40.416Z,99892.91
2022-11-03T08:09:42.487Z,99895.47
2022-11-03T08:11:45.244Z,99888.59
2022-11-03T08:13:47.230Z,99888.59
2022-11-03T08:15:49.169Z,99900.63
2022-11-03T08:17:56.025Z,99898.03
2022-11-03T08:19:58.327Z,99899.78
2022-11-03T08:22:00.488Z,99904.06
2022-11-03T08:24:02.694Z,99898.06
2022-11-03T08:26:05.025Z,99902.34
2022-11-03T08:28:07.177Z,99895.47
2022-11-03T08:30:10.314Z,99909.22
2022-11-03T08:32:12.235Z,99919.53
2022-11-03T08:34:14.327Z,99932.44
2022-11-03T08:36:16.358Z,99929.84
2022-11-03T08:38:18.324Z,99929.00
2022-11-03T08:40:20.526Z,99923.84
2022-11-03T08:42:22.457Z,99916.91
2022-11-03T08:44:24.563Z,99912.63
2022-11-03T08:46:26.527Z,99908.34
2022-11-03T08:48:29.006Z,99888.53
2022-11-03T08:50:31.153Z,99903.13
2022-11-03T08:52:33.316Z,99910.91
2022-11-03T08:54:35.560Z,99910.91
2022-11-03T08:56:37.691Z,99905.72
2022-11-03T08:58:39.755Z,99898.06
2022-11-03T09:00:41.998Z,99899.75
2022-11-03T09:02:45.394Z,99885.13
2022-11-03T09:04:47.473Z,99900.59
2022-11-03T09:06:49.686Z,99892.00
2022-11-03T09:11:13.847Z,99889.38
2022-11-03T09:13:16.378Z,99879.94
2022-11-03T09:15:18.815Z,99883.41
2022-11-03T09:17:20.894Z,99885.97
2022-11-03T09:19:23.282Z,99886.00
2022-11-03T09:21:25.317Z,99884.25
2022-11-03T09:23:27.455Z,99875.69
2022-11-03T09:25:29.534Z,99866.22
2022-11-03T09:27:32.026Z,99863.59
2022-11-03T09:29:58.642Z,99855.00
2022-11-03T09:31:56.095Z,99846.41
2022-11-03T09:33:58.132Z,99844.72
2022-11-03T09:36:00.383Z,99859.34
2022-11-03T09:38:02.357Z,99861.06
2022-11-03T09:40:05.005Z,99867.94
2022-11-03T09:42:07.728Z,99867.09
2022-11-03T09:44:10.678Z,99854.19
2022-11-03T09:46:13.805Z,99854.16
2022-11-03T09:48:15.864Z,99852.47
2022-11-03T09:50:20.446Z,99855.94
2022-11-03T09:52:25.322Z,99857.63
2022-11-03T09:54:28.406Z,99862.78
2022-11-03T09:56:31.595Z,99861.91
2022-11-03T09:58:33.766Z,99855.91
2022-11-03T10:00:35.934Z,99860.22
2022-11-03T10:02:40.076Z,99861.06
2022-11-03T10:04:42.113Z,99863.63
2022-11-03T10:06:44.256Z,99859.34
2022-11-03T10:08:47.566Z,99856.75
2022-11-03T10:10:51.624Z,99865.38
2022-11-03T10:12:53.856Z,99870.53
2022-11-03T10:14:56.241Z,99858.50
2022-11-03T10:17:00.916Z,99855.94
2022-11-03T10:19:03.446Z,99858.50
2022-11-03T10:21:18.654Z,99855.94
2022-11-03T10:23:20.615Z,99859.38
2022-11-03T10:25:35.915Z,99858.50
2022-11-03T10:27:37.847Z,99849.91
2022-11-03T10:29:41.309Z,99849.06
2022-11-03T10:31:51.023Z,99841.31
2022-11-03T10:33:55.443Z,99847.34
2022-11-03T10:35:59.587Z,99847.34
2022-11-03T10:38:20.880Z,99846.47
2022-11-03T10:40:47.757Z,99837.84
2022-11-03T10:42:59.839Z,99832.69
2022-11-03T10:45:18.824Z,99837.88
2022-11-03T10:47:26.087Z,99843.88
2022-11-03T10:49:30.796Z,99845.59
2022-11-03T10:51:34.782Z,99841.28
2022-11-03T10:53:36.907Z,99841.31
2022-11-03T10:55:41.509Z,99839.56
2022-11-03T10:57:44.928Z,99834.44
2022-11-03T10:59:49.988Z,99835.28
2022-11-03T11:01:52.105Z,99824.09
2022-11-03T11:03:55.553Z,99823.22
2022-11-03T11:05:57.704Z,99820.66
2022-11-03T11:08:00.067Z,99824.94
2022-11-03T11:10:15.824Z,99818.06
2022-11-03T11:12:23.003Z,99810.34
2022-11-03T11:14:28.570Z,99812.03
2022-11-03T11:16:48.205Z,99814.63
2022-11-03T11:18:51.895Z,99798.28
2022-11-03T11:20:54.786Z,99799.16
2022-11-03T11:23:25.531Z,99799.13
2022-11-03T11:25:56.832Z,99792.28
2022-11-03T11:27:58.919Z,99789.69
2022-11-03T11:30:02.445Z,99792.25
2022-11-03T11:32:33.839Z,99789.66
2022-11-03T11:34:36.724Z,99789.69
2022-11-03T11:36:41.208Z,99790.53
2022-11-03T11:38:55.917Z,99773.31
2022-11-03T11:40:58.011Z,99756.13
2022-11-03T11:43:04.834Z,99755.28
2022-11-03T11:45:07.543Z,99761.28
2022-11-03T11:47:22.115Z,99760.41
2022-11-03T11:49:24.287Z,99752.69
2022-11-03T11:51:26.636Z,99747.53
2022-11-03T11:53:33.863Z,99750.09
2022-11-03T11:55:49.363Z,99748.38
2022-11-03T11:57:53.082Z,99750.09
2022-11-03T11:59:55.456Z,99741.44
2022-11-03T12:02:12.051Z,99733.66
2022-11-03T12:04:20.834Z,99736.25
2022-11-03T12:06:40.994Z,99737.09
2022-11-03T12:08:43.758Z,99750.84
2022-11-03T12:10:54.511Z,99749.16
2022-11-03T12:12:57.045Z,99752.59
2022-11-03T12:14:59.659Z,99750.84
2022-11-03T12:17:22.851Z,99755.16
2022-11-03T12:19:36.355Z,99765.50
2022-11-03T12:21:49.007Z,99756.88
2022-11-03T12:23:51.178Z,99753.44
2022-11-03T12:25:53.382Z,99742.25
2022-11-03T12:27:55.865Z,99749.16
2022-11-03T12:29:59.973Z,99749.16
2022-11-03T12:32:02.327Z,99746.56
2022-11-03T12:34:04.461Z,99744.81
2022-11-03T12:36:08.940Z,99747.44
2022-11-03T12:38:11.054Z,99757.75
2022-11-03T12:40:15.031Z,99754.31
2022-11-03T12:42:17.184Z,99753.44
2022-11-03T12:44:19.291Z,99746.53
2022-11-03T12:46:22.608Z,99751.75
2022-11-03T12:48:24.847Z,99745.66
2022-11-03T12:50:27.784Z,99742.25
2022-11-03T12:52:29.994Z,99739.66
2022-11-03T12:54:32.904Z,99740.47
2022-11-03T12:56:35.347Z,99737.91
2022-11-03T12:58:37.956Z,99737.94
2022-11-03T13:00:40.151Z,99737.16
2022-11-03T13:02:42.582Z,99735.38
2022-11-03T13:04:45.024Z,99726.81
2022-11-03T13:06:47.115Z,99743.19
2022-11-03T13:08:53.157Z,99755.22
2022-11-03T13:10:55.511Z,99756.94
2022-11-03T13:12:57.983Z,99768.13
2022-11-03T13:15:03.541Z,99766.44
2022-11-03T13:17:05.610Z,99761.25
2022-11-03T13:19:10.160Z,99772.44
2022-11-03T13:21:13.694Z,99758.66
2022-11-03T13:23:18.750Z,99778.47
2022-11-03T13:25:25.487Z,99786.22
2022-11-03T13:27:27.693Z,99774.16
2022-11-03T13:29:34.947Z,99769.88
2022-11-03T13:31:37.855Z,99763.81
2022-11-03T13:33:40.365Z,99760.38
2022-11-03T13:35:42.630Z,99742.31
2022-11-03T13:37:45.728Z,99745.75
2022-11-03T13:39:48.277Z,99733.72
2022-11-03T13:41:50.733Z,99707.91
2022-11-03T13:43:53.159Z,99687.28
2022-11-03T13:45:58.799Z,99682.97
2022-11-03T13:50:24.405Z,99654.63
2022-11-03T13:52:28.755Z,99693.38
2022-11-03T13:59:30.816Z,99714.84
2022-11-03T14:01:33.962Z,99717.44
2022-11-03T14:05:58.477Z,99724.28
2022-11-03T14:08:00.778Z,99727.72
2022-11-03T14:10:04.610Z,99726.00
2022-11-03T14:12:16.397Z,99720.84
2022-11-03T14:14:18.644Z,99724.28
2022-11-03T14:16:20.663Z,99723.41
2022-11-03T14:18:22.978Z,99720.78
2022-11-03T14:20:25.167Z,99718.22
2022-11-03T14:22:27.385Z,99706.97
2022-11-03T14:24:29.444Z,99697.50
2022-11-03T14:26:46.141Z,99695.72
2022-11-03T14:28:48.546Z,99704.28
2022-11-03T14:30:50.698Z,99693.06
2022-11-03T14:32:56.852Z,99693.84
2022-11-03T14:35:01.789Z,99681.69
2022-11-03T14:37:05.320Z,99679.03
2022-11-03T14:39:07.640Z,99683.16
2022-11-03T14:41:19.607Z,99683.88
2022-11-03T14:43:21.774Z,99687.19
2022-11-03T14:45:24.141Z,99682.00
2022-11-03T14:47:26.349Z,99690.75
2022-11-03T14:49:29.437Z,99695.94
2022-11-03T14:51:32.093Z,99688.19
2022-11-03T14:53:34.548Z,99685.59
2022-11-03T14:55:36.776Z,99689.09
2022-11-03T14:57:38.991Z,99684.94
2022-11-03T14:59:41.272Z,99681.44
2022-11-03T15:01:43.714Z,99683.22
2022-11-03T15:03:46.406Z,99675.59
2022-11-03T15:05:49.295Z,99682.53
2022-11-03T15:07:51.867Z,99691.19
2022-11-03T15:09:54.542Z,99688.59
2022-11-03T15:11:57.728Z,99689.50
2022-11-03T15:14:00.094Z,99694.63
2022-11-03T15:16:03.073Z,99694.69
2022-11-03T15:18:05.494Z,99698.22
2022-11-03T15:20:09.612Z,99692.19
2022-11-03T15:22:12.819Z,99699.13
2022-11-03T15:26:37.655Z,99709.50
2022-11-03T15:28:43.078Z,99706.91
2022-11-03T15:30:45.771Z,99711.16
2022-11-03T15:32:48.394Z,99701.75
2022-11-03T15:34:50.840Z,99701.78
2022-11-03T15:36:53.554Z,99710.41
2022-11-03T15:38:55.919Z,99717.34
2022-11-03T15:41:16.040Z,99709.53
2022-11-03T15:43:19.106Z,99714.72
2022-11-03T15:45:21.510Z,99710.41
2022-11-03T15:47:24.195Z,99716.41
2022-11-03T15:49:26.722Z,99724.97
2022-11-03T15:51:29.330Z,99716.31
2022-11-03T15:53:31.489Z,99715.50
2022-11-03T15:55:33.888Z,99725.00
2022-11-03T15:57:36.262Z,99734.50
2022-11-03T15:59:39.512Z,99725.88
2022-11-03T16:01:41.907Z,99732.75
2022-11-03T16:03:44.268Z,99735.34
2022-11-03T16:05:46.719Z,99734.50
2022-11-03T16:07:49.249Z,99736.19
2022-11-03T16:09:52.073Z,99731.91
2022-11-03T16:11:54.700Z,99731.06
2022-11-03T16:13:57.475Z,99724.16
2022-11-03T16:15:59.984Z,99730.19
2022-11-03T16:18:03.172Z,99734.59
2022-11-03T16:20:06.386Z,99729.38
2022-11-03T16:22:08.913Z,99729.34
2022-11-03T16:24:11.957Z,99730.25
2022-11-03T16:26:14.524Z,99731.13
2022-11-03T16:28:17.048Z,99732.00
2022-11-03T16:30:20.598Z,99739.75
2022-11-03T16:32:23.226Z,99737.19
2022-11-03T16:34:25.988Z,99729.44
2022-11-03T16:36:28.371Z,99733.72
2022-11-03T16:38:31.050Z,99737.19
2022-11-03T16:40:33.483Z,99735.44
2022-11-03T16:42:38.830Z,99726.84
2022-11-03T16:44:41.302Z,99736.31
2022-11-03T16:46:43.950Z,99724.28
2022-11-03T16:48:46.331Z,99733.75
2022-11-03T16:50:51.547Z,99730.31
2022-11-03T16:52:57.338Z,99734.59
2022-11-03T16:55:01.441Z,99736.31
2022-11-03T16:57:04.179Z,99739.78
2022-11-03T16:59:06.758Z,99737.19
2022-11-03T17:01:09.595Z,99739.78
2022-11-03T17:03:12.206Z,99749.25
2022-11-03T17:05:17.087Z,99748.41
2022-11-03T17:07:19.912Z,99746.66
2022-11-03T17:09:22.442Z,99755.28
2022-11-03T17:11:36.019Z,99751.00
2022-11-03T17:13:38.799Z,99763.03
2022-11-03T17:15:41.409Z,99759.63
2022-11-03T17:17:44.375Z,99769.06
2022-11-03T17:19:47.191Z,99769.94
2022-11-03T17:21:49.823Z,99766.50
2022-11-03T17:23:53.107Z,99764.78
2022-11-03T17:25:57.065Z,99769.09
2022-11-03T17:28:02.646Z,99765.66
2022-11-03T17:30:09.237Z,99766.53
2022-11-03T17:32:24.499Z,99766.50
2022-11-03T17:34:30.607Z,99766.50
2022-11-03T17:36:33.259Z,99770.81
2022-11-03T17:38:35.812Z,99774.25
2022-11-03T17:40:38.680Z,99775.09
2022-11-03T17:42:41.490Z,99771.69
2022-11-03T17:44:49.291Z,99772.53
2022-11-03T17:46:51.875Z,99766.53
2022-11-03T17:48:55.569Z,99770.84
2022-11-03T17:50:58.624Z,99773.41
2022-11-03T17:53:02.519Z,99775.13
2022-11-03T17:55:16.389Z,99769.13
2022-11-03T17:57:22.608Z,99774.28
2022-11-03T17:59:25.277Z,99769.09
2022-11-03T18:01:28.247Z,99769.09
2022-11-03T18:03:31.439Z,99765.69
2022-11-03T18:05:34.069Z,99783.72
2022-11-03T18:07:36.776Z,99782.84
2022-11-03T18:09:42.798Z,99776.81
2022-11-03T18:11:56.718Z,99779.41
2022-11-03T18:14:00.319Z,99776.81
2022-11-03T18:16:09.523Z,99778.56
2022-11-03T18:18:25.898Z,99778.53
2022-11-03T18:20:31.335Z,99775.94
2022-11-03T18:22:33.992Z,99786.25
2022-11-03T18:24:36.608Z,99782.84
2022-11-03T18:26:39.311Z,99782.84
2022-11-03T18:28:42.012Z,99779.41
2022-11-03T18:30:48.053Z,99778.53
2022-11-03T18:32:50.927Z,99774.25
2022-11-03T18:34:53.817Z,99777.69
2022-11-03T18:36:56.414Z,99773.38
2022-11-03T18:39:00.466Z,99775.97
2022-11-03T18:41:03.329Z,99778.53
2022-11-03T18:43:14.164Z,99781.13
2022-11-03T18:45:17.654Z,99787.13
2022-11-03T18:47:20.545Z,99786.25
2022-11-03T18:49:24.897Z,99788.00
2022-11-03T18:51:28.038Z,99781.13
2022-11-03T18:53:30.613Z,99788.00
2022-11-03T18:55:33.663Z,99783.69
2022-11-03T18:57:37.648Z,99781.09
2022-11-03T18:59:45.347Z,99777.66
2022-11-03T19:01:51.382Z,99775.09
2022-11-03T19:03:57.649Z,99776.78
2022-11-03T19:06:00.530Z,99774.22
2022-11-03T19:08:03.521Z,99772.50
2022-11-03T19:10:10.310Z,99771.66
2022-11-03T19:12:15.912Z,99768.22
2022-11-03T19:14:29.684Z,99761.34
2022-11-03T19:16:33.689Z,99751.91
2022-11-03T19:18:36.707Z,99750.19
2022-11-03T19:20:39.658Z,99744.16
2022-11-03T19:22:42.211Z,99744.16
2022-11-03T19:24:46.116Z,99743.28
2022-11-03T19:27:01.078Z,99745.84
2022-11-03T19:29:10.931Z,99738.97
2022-11-03T19:31:26.036Z,99739.84
2022-11-03T19:33:31.339Z,99739.81
2022-11-03T19:35:35.747Z,99739.84
2022-11-03T19:37:38.179Z,99734.69
2022-11-03T19:39:41.592Z,99735.56
2022-11-03T19:41:53.408Z,99739.84
2022-11-03T19:43:55.668Z,99736.41
2022-11-03T19:45:58.366Z,99725.25
2022-11-03T19:50:27.488Z,99721.78
2022-11-03T19:52:31.959Z,99716.66
2022-11-03T19:54:34.669Z,99716.63
2022-11-03T19:56:36.928Z,99714.94
2022-11-03T19:58:39.475Z,99715.75
2022-11-03T20:00:42.528Z,99709.72
2022-11-03T20:02:45.233Z,99715.72
2022-11-03T20:04:47.760Z,99714.84
2022-11-03T20:06:50.034Z,99716.56
2022-11-03T20:08:53.735Z,99709.69
2022-11-03T20:10:56.291Z,99711.41
2022-11-03T20:12:59.157Z,99709.72
2022-11-03T20:15:01.719Z,99710.56
2022-11-03T20:17:14.895Z,99706.25
2022-11-03T20:19:17.365Z,99714.84
2022-11-03T20:21:22.617Z,99709.69
2022-11-03T20:23:27.776Z,99707.09
2022-11-03T20:25:35.396Z,99705.41
2022-11-03T20:27:37.883Z,99706.28
2022-11-03T20:29:40.562Z,99705.41
2022-11-03T20:31:45.276Z,99701.13
2022-11-03T20:33:48.168Z,99708.81
2022-11-03T20:35:53.795Z,99705.41
2022-11-03T20:37:59.427Z,99704.56
2022-11-03T20:40:01.858Z,99703.69
2022-11-03T20:42:04.723Z,99698.59
2022-11-03T20:44:07.265Z,99699.44
2022-11-03T20:46:22.508Z,99693.47
2022-11-03T20:48:25.052Z,99685.69
2022-11-03T20:50:30.622Z,99695.16
2022-11-03T20:52:33.230Z,99690.00
2022-11-03T20:54:35.631Z,99701.19
2022-11-03T20:56:38.337Z,99694.34
2022-11-03T20:58:40.972Z,99702.06
2022-11-03T21:00:45.253Z,99699.47
2022-11-03T21:02:49.458Z,99694.34
2022-11-03T21:04:52.080Z,99692.59
2022-11-03T21:06:54.737Z,99690.06
2022-11-03T21:09:00.426Z,99699.47
2022-11-03T21:11:22.806Z,99698.63
2022-11-03T21:13:25.430Z,99690.91
2022-11-03T21:15:37.468Z,99690.91
2022-11-03T21:17:49.437Z,99687.47
2022-11-03T21:20:00.157Z,99683.16
2022-11-03T21:22:02.768Z,99685.75
2022-11-03T21:24:06.846Z,99690.91
2022-11-03T21:26:13.531Z,99694.38
2022-11-03T21:28:17.327Z,99694.34
2022-11-03T21:30:20.278Z,99691.75
2022-11-03T21:32:23.811Z,99693.50
2022-11-03T21:34:26.911Z,99708.94
2022-11-03T21:36:29.397Z,99709.78
2022-11-03T21:38:31.665Z,99710.63
2022-11-03T21:40:34.534Z,99708.06
2022-11-03T21:42:46.453Z,99716.66
2022-11-03T21:44:49.076Z,99720.97
2022-11-03T21:46:51.703Z,99712.34
2022-11-03T21:49:03.766Z,99713.19
2022-11-03T21:51:06.431Z,99716.66
2022-11-03T21:53:09.006Z,99714.94
2022-11-03T21:55:11.789Z,99722.66
2022-11-03T21:57:15.789Z,99716.66
2022-11-03T21:59:18.206Z,99722.66
2022-11-03T22:01:20.460Z,99724.38
2022-11-03T22:03:23.207Z,99722.63
2022-11-03T22:05:26.689Z,99713.19
2022-11-03T22:07:32.987Z,99708.03
2022-11-03T22:09:35.217Z,99714.91
2022-11-03T22:11:37.370Z,99714.91
2022-11-03T22:13:39.609Z,99721.78
2022-11-03T22:15:51.450Z,99714.91
2022-11-03T22:18:00.140Z,99714.91
2022-11-03T22:20:11.436Z,99707.16
2022-11-03T22:22:24.406Z,99713.13
2022-11-03T22:24:36.428Z,99711.44
2022-11-03T22:26:48.845Z,99714.88
2022-11-03T22:29:10.847Z,99708.03
2022-11-03T22:31:22.499Z,99706.31
2022-11-03T22:33:26.899Z,99694.28
2022-11-03T22:35:38.398Z,99702.88
2022-11-03T22:37:40.605Z,99696.00
2022-11-03T22:39:52.405Z,99702.88
2022-11-03T22:42:06.626Z,99702.03
2022-11-03T22:44:18.638Z,99700.31
2022-11-03T22:46:21.176Z,99706.31
2022-11-03T22:48:26.149Z,99702.88
2022-11-03T22:50:28.397Z,99700.31
2022-11-03T22:52:30.401Z,99705.50
2022-11-03T22:54:32.432Z,99707.22
2022-11-03T22:56:34.576Z,99698.63
2022-11-03T22:58:36.735Z,99693.47
2022-11-03T23:00:40.502Z,99696.03
2022-11-03T23:02:42.829Z,99690.88
2022-11-03T23:04:46.490Z,99703.78
2022-11-03T23:06:48.767Z,99697.75
2022-11-03T23:08:52.279Z,99704.63
2022-11-03T23:10:54.437Z,99696.06
2022-11-03T23:12:56.468Z,99700.34
2022-11-03T23:15:08.428Z,99698.66
2022-11-03T23:17:10.500Z,99708.09
2022-11-03T23:19:24.556Z,99713.22
2022-11-03T23:21:28.556Z,99714.94
2022-11-03T23:23:40.724Z,99716.66
2022-11-03T23:25:42.668Z,99722.69
2022-11-03T23:27:44.743Z,99721.81
2022-11-03T23:29:46.799Z,99725.25
2022-11-03T23:31:49.046Z,99727.81
2022-11-03T23:33:51.165Z,99731.25
2022-11-03T23:35:53.638Z,99718.38
2022-11-03T23:37:55.637Z,99717.50
2022-11-03T23:39:57.652Z,99719.25
2022-11-03T23:41:59.558Z,99730.41
2022-11-03T23:44:01.487Z,99732.13
2022-11-03T23:46:13.688Z,99732.09
2022-11-03T23:48:25.667Z,99735.53
2022-11-03T23:50:27.843Z,99743.25
2022-11-03T23:52:29.857Z,99752.66
2022-11-03T23:54:31.947Z,99747.53
2022-11-03T23:56:46.666Z,99748.41
2022-11-03T23:58:49.837Z,99747.53
